Time;durP1;ratioP1;P1;durP2;ratioP2;P2;SDS_P1;SDS_P2;PMS_P1;PMS_P2;Temp;Humidity;BMP_temperature;BMP_pressure;BME280_temperature;BME280_humidity;BME280_pressure;Samples;Min_cycle;Max_cycle;Signal;HPM_P1;HPM_P2
2021/12/07 00:01:01;;;;;;;26.95;12.35;;;;;;;;;;5117258;28;20031;-74
2021/12/07 00:03:27;;;;;;;23.42;10.45;;;;;;;;;;5117213;28;20023;-73
2021/12/07 00:05:53;;;;;;;25.55;10.73;;;;;;;;;;5098578;28;20059;-73
2021/12/07 00:08:20;;;;;;;25.52;11.38;;;;;;;;;;5098787;28;20110;-74
2021/12/07 00:10:49;;;;;;;26.67;11.82;;;;;;;;;;5116964;28;20413;-73
2021/12/07 00:13:15;;;;;;;25.75;11.57;;;;;;;;;;5116952;28;20027;-73
2021/12/07 00:15:41;;;;;;;22.55;10.95;;;;;;;;;;5116956;28;20069;-73
2021/12/07 00:18:07;;;;;;;24.80;11.43;;;;;;;;;;5098633;28;20410;-72
2021/12/07 00:20:34;;;;;;;20.55;9.90;;;;;;;;;;5116819;28;20043;-72
2021/12/07 00:23:01;;;;;;;22.10;10.50;;;;;;;;;;5116808;28;20095;-74
2021/12/07 00:25:28;;;;;;;23.42;10.48;;;;;;;;;;5117018;28;20032;-74
2021/12/07 00:27:54;;;;;;;21.02;10.18;;;;;;;;;;5098424;28;20027;-73
2021/12/07 00:30:26;;;;;;;23.17;9.77;;;;;;;;;;5116744;28;20061;-73
2021/12/07 00:33:07;;;;;;;24.33;10.07;;;;;;;;;;5098374;28;20487;-73
2021/12/07 00:35:34;;;;;;;19.35;9.93;;;;;;;;;;5117138;28;20020;-73
2021/12/07 00:38:01;;;;;;;23.10;10.52;;;;;;;;;;5098286;28;20096;-74
2021/12/07 00:40:28;;;;;;;24.30;10.27;;;;;;;;;;5116370;28;20038;-74
2021/12/07 00:42:54;;;;;;;22.08;9.68;;;;;;;;;;5116336;28;20032;-72
2021/12/07 00:45:22;;;;;;;24.05;10.88;;;;;;;;;;5098109;28;20023;-74
2021/12/07 00:47:49;;;;;;;23.10;10.48;;;;;;;;;;5116286;28;20102;-73
2021/12/07 00:50:16;;;;;;;24.42;10.23;;;;;;;;;;5097999;28;20399;-73
2021/12/07 00:52:43;;;;;;;25.38;10.13;;;;;;;;;;5097900;28;20015;-74
2021/12/07 00:55:11;;;;;;;24.33;9.90;;;;;;;;;;5116216;28;20418;-73
2021/12/07 00:57:38;;;;;;;23.67;10.30;;;;;;;;;;5097905;28;20020;-73
2021/12/07 01:00:14;;;;;;;25.45;10.57;;;;;;;;;;5097702;28;20551;-73
2021/12/07 01:02:40;;;;;;;20.88;9.38;;;;;;;;;;5097767;28;20020;-74
2021/12/07 01:05:19;;;;;;;24.42;9.75;;;;;;;;;;5097766;28;20076;-73
2021/12/07 01:26:44;;;;;;;26.92;9.38;;;;;;;;;;5115887;28;20038;-72
2021/12/07 01:29:11;;;;;;;23.75;9.63;;;;;;;;;;5097270;28;20030;-73
2021/12/07 01:52:44;;;;;;;19.98;8.55;;;;;;;;;;5115948;28;20464;-73
2021/12/07 01:59:32;;;;;;;20.25;8.18;;;;;;;;;;5115077;28;20122;-74
2021/12/07 02:00:55;;;;;;;23.17;8.68;;;;;;;;;;5114719;28;20494;-73
2021/12/07 02:03:22;;;;;;;22.88;9.02;;;;;;;;;;5115015;28;20046;-73
2021/12/07 02:05:48;;;;;;;20.88;8.65;;;;;;;;;;5096353;28;20403;-74
2021/12/07 02:08:15;;;;;;;23.80;9.20;;;;;;;;;;5114800;28;20020;-72
2021/12/07 02:10:41;;;;;;;22.65;9.27;;;;;;;;;;5114707;28;20487;-73
2021/12/07 02:16:04;;;;;;;26.40;9.40;;;;;;;;;;5059493;28;20033;-74
2021/12/07 02:18:30;;;;;;;22.42;8.75;;;;;;;;;;5079653;28;20020;-73
2021/12/07 02:20:56;;;;;;;25.35;9.15;;;;;;;;;;5095561;28;20036;-74
2021/12/07 02:23:22;;;;;;;22.58;9.35;;;;;;;;;;5114561;28;20035;-75
2021/12/07 02:25:49;;;;;;;24.02;8.82;;;;;;;;;;5096187;28;20441;-74
2021/12/07 02:28:16;;;;;;;21.02;7.78;;;;;;;;;;5114947;28;20121;-73
2021/12/07 02:30:43;;;;;;;22.48;9.43;;;;;;;;;;5096050;28;20023;-72
2021/12/07 02:33:10;;;;;;;18.80;8.32;;;;;;;;;;5096113;28;20028;-72
2021/12/07 02:35:39;;;;;;;21.60;8.50;;;;;;;;;;5114469;28;20073;-72
2021/12/07 02:38:06;;;;;;;20.38;7.88;;;;;;;;;;5095991;28;20464;-76
2021/12/07 02:40:32;;;;;;;22.63;8.57;;;;;;;;;;5114187;28;20438;-73
2021/12/07 02:42:58;;;;;;;21.98;8.60;;;;;;;;;;5114782;28;20027;-72
2021/12/07 02:45:26;;;;;;;23.08;9.32;;;;;;;;;;5095844;28;20076;-73
2021/12/07 02:47:52;;;;;;;22.73;8.98;;;;;;;;;;5114915;28;20039;-72
2021/12/07 02:50:20;;;;;;;19.55;8.23;;;;;;;;;;5114033;28;20050;-73
2021/12/07 02:52:46;;;;;;;18.35;8.10;;;;;;;;;;5114626;28;20092;-73
2021/12/07 02:55:13;;;;;;;19.10;8.05;;;;;;;;;;5095795;28;20465;-72
2021/12/07 02:57:42;;;;;;;19.15;8.05;;;;;;;;;;5095724;28;20081;-73
2021/12/07 03:00:15;;;;;;;22.45;8.55;;;;;;;;;;5114445;28;20100;-73
2021/12/07 03:02:47;;;;;;;19.35;8.13;;;;;;;;;;5114510;28;20016;-76
2021/12/07 03:05:24;;;;;;;19.10;8.82;;;;;;;;;;5095632;28;20024;-74
2021/12/07 03:26:59;;;;;;;17.38;7.45;;;;;;;;;;5113874;28;20038;-73
2021/12/07 03:29:25;;;;;;;20.85;8.40;;;;;;;;;;5114221;28;20024;-74
2021/12/07 03:31:51;;;;;;;16.45;8.05;;;;;;;;;;5096013;28;20028;-74
2021/12/07 03:34:17;;;;;;;21.38;9.27;;;;;;;;;;5118012;28;20024;-74
2021/12/07 03:36:44;;;;;;;19.35;8.65;;;;;;;;;;5099430;28;20027;-74
2021/12/07 03:39:10;;;;;;;17.73;8.93;;;;;;;;;;5099253;28;20118;-74
2021/12/07 03:41:36;;;;;;;20.08;8.75;;;;;;;;;;5099229;28;20397;-73
2021/12/07 03:44:03;;;;;;;23.33;8.93;;;;;;;;;;5117567;28;20107;-74
2021/12/07 03:46:30;;;;;;;20.08;9.10;;;;;;;;;;5099223;28;20051;-73
2021/12/07 03:48:56;;;;;;;24.80;9.00;;;;;;;;;;5117503;28;20051;-73
2021/12/07 03:51:22;;;;;;;26.38;8.68;;;;;;;;;;5117361;28;20031;-73
2021/12/07 03:53:49;;;;;;;23.50;9.52;;;;;;;;;;5117341;28;20077;-73
2021/12/07 03:56:15;;;;;;;23.75;8.93;;;;;;;;;;5117373;28;20023;-75
2021/12/07 03:58:42;;;;;;;18.55;8.20;;;;;;;;;;5117150;28;20023;-73
2021/12/07 04:01:11;;;;;;;23.33;9.07;;;;;;;;;;5117167;28;20028;-74
2021/12/07 04:03:37;;;;;;;23.35;8.60;;;;;;;;;;5098616;28;20434;-73
2021/12/07 04:06:06;;;;;;;19.25;9.00;;;;;;;;;;5095008;28;20036;-73
2021/12/07 04:08:33;;;;;;;19.50;8.15;;;;;;;;;;5096974;28;20153;-74
2021/12/07 04:11:00;;;;;;;24.30;8.43;;;;;;;;;;5096771;28;20023;-73
2021/12/07 04:13:26;;;;;;;25.58;9.35;;;;;;;;;;5096490;28;20020;-74
2021/12/07 04:15:53;;;;;;;22.05;9.48;;;;;;;;;;5096737;28;20032;-72
2021/12/07 04:18:20;;;;;;;20.42;8.82;;;;;;;;;;5097040;28;20024;-73
2021/12/07 04:20:47;;;;;;;21.08;8.85;;;;;;;;;;5096243;28;20028;-72
2021/12/07 04:23:13;;;;;;;24.52;8.70;;;;;;;;;;5095139;28;20017;-72
2021/12/07 04:25:40;;;;;;;21.83;9.75;;;;;;;;;;5095168;28;20035;-72
2021/12/07 04:28:06;;;;;;;20.40;7.30;;;;;;;;;;5095029;28;20024;-72
2021/12/07 04:30:34;;;;;;;17.05;8.27;;;;;;;;;;5095109;28;20031;-73
2021/12/07 04:33:02;;;;;;;18.77;8.10;;;;;;;;;;5096783;28;20389;-73
2021/12/07 04:35:28;;;;;;;21.95;8.65;;;;;;;;;;5096272;28;20445;-73
2021/12/07 04:37:55;;;;;;;21.38;8.15;;;;;;;;;;5094916;28;20024;-73
2021/12/07 04:40:23;;;;;;;22.05;7.68;;;;;;;;;;5096014;28;20043;-73
2021/12/07 04:42:50;;;;;;;19.40;7.70;;;;;;;;;;5096093;28;20461;-73
2021/12/07 04:45:31;;;;;;;19.42;8.15;;;;;;;;;;5095692;28;20074;-73
2021/12/07 04:58:26;;;;;;;19.13;8.90;;;;;;;;;;5096115;28;20541;-73
2021/12/07 05:00:52;;;;;;;21.77;8.90;;;;;;;;;;5094439;28;20089;-72
2021/12/07 05:03:19;;;;;;;20.52;9.20;;;;;;;;;;5094444;28;20161;-73
2021/12/07 05:05:49;;;;;;;20.15;8.65;;;;;;;;;;5097396;28;20032;-73
2021/12/07 05:08:27;;;;;;;21.65;8.75;;;;;;;;;;5097697;28;20118;-73
2021/12/07 05:13:53;;;;;;;18.90;8.68;;;;;;;;;;5115999;28;20074;-73
2021/12/07 05:16:30;;;;;;;20.35;8.82;;;;;;;;;;5114567;28;20027;-72
2021/12/07 05:23:52;;;;;;;19.35;8.10;;;;;;;;;;5115980;28;20024;-72
2021/12/07 05:24:47;;;;;;;21.35;7.57;;;;;;;;;;5095305;28;20073;-74
2021/12/07 05:37:57;;;;;;;22.65;8.32;;;;;;;;;;5095236;28;20036;-73
2021/12/07 05:40:25;;;;;;;19.50;8.13;;;;;;;;;;5094803;28;20024;-72
2021/12/07 05:42:52;;;;;;;21.00;8.30;;;;;;;;;;5076652;28;20028;-71
2021/12/07 05:45:20;;;;;;;18.50;8.00;;;;;;;;;;5094791;28;20031;-71
2021/12/07 05:47:47;;;;;;;20.33;8.35;;;;;;;;;;5094716;28;20388;-71
2021/12/07 05:50:14;;;;;;;18.30;8.18;;;;;;;;;;5095062;28;20418;-71
2021/12/07 05:52:41;;;;;;;21.45;9.52;;;;;;;;;;5076485;28;20027;-73
2021/12/07 05:55:08;;;;;;;19.33;8.32;;;;;;;;;;5094582;28;20361;-73
2021/12/07 05:57:34;;;;;;;19.77;9.32;;;;;;;;;;5076074;28;20052;-72
2021/12/07 06:00:01;;;;;;;19.90;8.50;;;;;;;;;;5094755;28;20039;-71
2021/12/07 06:02:28;;;;;;;47.42;19.05;;;;;;;;;;5076427;28;20147;-73
2021/12/07 06:04:54;;;;;;;23.63;11.27;;;;;;;;;;5076441;28;20488;-72
2021/12/07 06:07:20;;;;;;;25.60;11.23;;;;;;;;;;5076131;28;20546;-73
2021/12/07 06:09:47;;;;;;;31.30;16.70;;;;;;;;;;5094876;28;20020;-72
2021/12/07 06:12:13;;;;;;;21.23;10.73;;;;;;;;;;5076141;28;20024;-71
2021/12/07 06:14:43;;;;;;;21.75;10.57;;;;;;;;;;5075988;28;20024;-72
2021/12/07 06:17:09;;;;;;;21.02;10.23;;;;;;;;;;5076153;28;20031;-71
2021/12/07 06:19:36;;;;;;;24.88;10.25;;;;;;;;;;5093845;28;20032;-72
2021/12/07 06:22:03;;;;;;;21.90;9.88;;;;;;;;;;5075375;28;20416;-72
2021/12/07 06:24:30;;;;;;;23.65;10.05;;;;;;;;;;5075865;28;20016;-72
2021/12/07 06:26:56;;;;;;;25.27;11.40;;;;;;;;;;5075868;28;20074;-72
2021/12/07 06:29:22;;;;;;;22.92;9.40;;;;;;;;;;5075719;28;20055;-72
2021/12/07 06:31:48;;;;;;;24.25;10.32;;;;;;;;;;5075625;28;20024;-71
2021/12/07 06:34:15;;;;;;;22.58;9.93;;;;;;;;;;5093824;28;20158;-72
2021/12/07 06:36:41;;;;;;;22.23;10.07;;;;;;;;;;5075756;28;20028;-72
2021/12/07 06:39:08;;;;;;;22.10;9.23;;;;;;;;;;5075228;28;20025;-72
2021/12/07 06:41:34;;;;;;;22.88;9.50;;;;;;;;;;5094455;28;20047;-72
2021/12/07 06:44:00;;;;;;;21.52;8.85;;;;;;;;;;5075380;28;20028;-72
2021/12/07 06:46:26;;;;;;;25.73;11.07;;;;;;;;;;5093879;28;20487;-72
2021/12/07 06:48:53;;;;;;;25.08;10.65;;;;;;;;;;5093872;28;20023;-72
2021/12/07 06:51:19;;;;;;;21.63;10.88;;;;;;;;;;5093652;28;20447;-73
2021/12/07 06:53:51;;;;;;;22.02;9.60;;;;;;;;;;5075564;28;20024;-73
2021/12/07 06:56:17;;;;;;;21.08;9.57;;;;;;;;;;5093142;28;20028;-72
2021/12/07 06:58:43;;;;;;;23.42;9.27;;;;;;;;;;5093667;28;20023;-72
2021/12/07 07:01:11;;;;;;;21.95;9.65;;;;;;;;;;5093693;28;20392;-72
2021/12/07 07:03:41;;;;;;;23.83;9.82;;;;;;;;;;5093732;28;20046;-71
2021/12/07 07:06:08;;;;;;;22.45;9.35;;;;;;;;;;5093201;28;20060;-73
2021/12/07 07:08:36;;;;;;;24.92;10.05;;;;;;;;;;5093411;28;20024;-72
2021/12/07 07:11:03;;;;;;;25.02;10.93;;;;;;;;;;5093681;28;20107;-71
2021/12/07 07:13:29;;;;;;;21.95;9.00;;;;;;;;;;5093687;28;20430;-71
2021/12/07 07:15:55;;;;;;;24.25;10.23;;;;;;;;;;5075271;28;20024;-71
2021/12/07 07:18:21;;;;;;;23.08;10.65;;;;;;;;;;5093516;28;20035;-72
2021/12/07 07:20:48;;;;;;;21.70;10.85;;;;;;;;;;5093555;28;20036;-73
2021/12/07 07:23:14;;;;;;;26.33;11.52;;;;;;;;;;5093461;28;20024;-71
2021/12/07 07:25:40;;;;;;;26.70;11.35;;;;;;;;;;5093657;28;20035;-72
2021/12/07 07:28:06;;;;;;;22.73;10.98;;;;;;;;;;5093650;28;20495;-71
2021/12/07 07:30:32;;;;;;;23.38;10.63;;;;;;;;;;5075513;28;20476;-72
2021/12/07 07:32:59;;;;;;;20.63;10.20;;;;;;;;;;5075757;28;20024;-71
2021/12/07 07:35:25;;;;;;;20.85;10.85;;;;;;;;;;5093158;28;20021;-72
2021/12/07 07:37:52;;;;;;;19.73;9.48;;;;;;;;;;5093640;28;20119;-73
2021/12/07 07:40:20;;;;;;;19.70;9.93;;;;;;;;;;5075557;28;20480;-73
2021/12/07 07:42:46;;;;;;;19.25;9.80;;;;;;;;;;5093464;28;20095;-72
2021/12/07 07:45:12;;;;;;;21.08;10.82;;;;;;;;;;5093372;28;20031;-72
2021/12/07 07:47:39;;;;;;;19.02;9.85;;;;;;;;;;5075251;28;20021;-72
2021/12/07 07:50:06;;;;;;;18.70;10.23;;;;;;;;;;5093047;28;20020;-72
2021/12/07 07:52:32;;;;;;;19.05;9.57;;;;;;;;;;5074800;28;20422;-73
2021/12/07 07:54:58;;;;;;;21.40;10.82;;;;;;;;;;5075109;28;20473;-72
2021/12/07 07:57:24;;;;;;;17.60;9.63;;;;;;;;;;5097170;28;20020;-71
2021/12/07 07:59:51;;;;;;;17.65;8.93;;;;;;;;;;5111582;28;20046;-72
2021/12/07 08:02:17;;;;;;;17.35;9.10;;;;;;;;;;5114373;28;20372;-71
2021/12/07 08:04:43;;;;;;;19.23;9.32;;;;;;;;;;5113708;28;20383;-71
2021/12/07 08:07:09;;;;;;;19.80;10.35;;;;;;;;;;5113153;28;20096;-73
2021/12/07 08:09:36;;;;;;;17.67;9.35;;;;;;;;;;5094582;28;20437;-72
2021/12/07 08:12:04;;;;;;;16.60;7.78;;;;;;;;;;5094694;28;20472;-72
2021/12/07 08:14:30;;;;;;;17.13;8.25;;;;;;;;;;5094746;28;20028;-73
2021/12/07 08:16:56;;;;;;;15.65;7.80;;;;;;;;;;5094864;28;20030;-73
2021/12/07 08:19:22;;;;;;;13.32;5.88;;;;;;;;;;5095980;28;20483;-73
2021/12/07 08:21:49;;;;;;;8.80;4.43;;;;;;;;;;5098427;28;20067;-73
2021/12/07 08:24:15;;;;;;;11.55;3.80;;;;;;;;;;5116761;28;20028;-72
2021/12/07 08:26:41;;;;;;;11.32;4.72;;;;;;;;;;5116707;28;20026;-73
2021/12/07 08:29:08;;;;;;;14.93;5.38;;;;;;;;;;5097844;28;20028;-73
2021/12/07 08:31:34;;;;;;;19.40;8.88;;;;;;;;;;5116453;28;20023;-73
2021/12/07 08:34:01;;;;;;;13.75;6.35;;;;;;;;;;5116261;28;20023;-73
2021/12/07 08:36:28;;;;;;;12.55;5.70;;;;;;;;;;5098148;28;20152;-73
2021/12/07 08:38:54;;;;;;;10.60;5.55;;;;;;;;;;5097991;28;20097;-72
2021/12/07 08:41:20;;;;;;;12.93;6.07;;;;;;;;;;5098432;28;20380;-73
2021/12/07 08:43:47;;;;;;;11.25;5.30;;;;;;;;;;5097980;28;20375;-73
2021/12/07 08:46:14;;;;;;;11.63;5.50;;;;;;;;;;5098089;28;20519;-73
2021/12/07 08:48:42;;;;;;;10.02;4.85;;;;;;;;;;5116099;28;20019;-73
2021/12/07 08:51:08;;;;;;;10.50;5.32;;;;;;;;;;5116038;28;20089;-73
2021/12/07 08:53:38;;;;;;;10.60;4.88;;;;;;;;;;5097683;28;20391;-73
2021/12/07 09:01:36;;;;;;;8.57;4.55;;;;;;;;;;5116112;28;20407;-73
2021/12/07 09:04:03;;;;;;;10.43;4.95;;;;;;;;;;5097658;28;20486;-71
2021/12/07 09:06:30;;;;;;;10.60;4.95;;;;;;;;;;5093704;28;20479;-71
2021/12/07 09:08:56;;;;;;;9.98;4.75;;;;;;;;;;5095397;28;20502;-72
2021/12/07 09:11:23;;;;;;;9.60;6.10;;;;;;;;;;5093232;28;20051;-74
2021/12/07 09:13:49;;;;;;;9.40;5.18;;;;;;;;;;5094818;28;20024;-71
2021/12/07 09:16:17;;;;;;;9.63;4.82;;;;;;;;;;5094638;28;20392;-72
2021/12/07 09:18:43;;;;;;;10.75;5.13;;;;;;;;;;5094627;28;20020;-72
2021/12/07 09:21:10;;;;;;;9.00;4.15;;;;;;;;;;5094958;28;20431;-73
2021/12/07 09:23:36;;;;;;;10.20;5.35;;;;;;;;;;5094801;28;20380;-73
2021/12/07 09:26:03;;;;;;;10.32;5.38;;;;;;;;;;5094459;28;20473;-73
2021/12/07 09:28:30;;;;;;;12.57;5.68;;;;;;;;;;5094758;28;20020;-72
2021/12/07 09:30:57;;;;;;;9.05;5.28;;;;;;;;;;5094300;28;20467;-72
2021/12/07 09:33:26;;;;;;;9.00;4.97;;;;;;;;;;5093984;28;20105;-72
2021/12/07 09:35:54;;;;;;;12.32;5.63;;;;;;;;;;5093847;28;20090;-71
2021/12/07 09:38:20;;;;;;;12.40;5.97;;;;;;;;;;5094128;28;20051;-72
2021/12/07 09:40:46;;;;;;;9.25;5.03;;;;;;;;;;5094052;28;20406;-72
2021/12/07 09:43:13;;;;;;;10.30;5.70;;;;;;;;;;5094555;28;20025;-72
2021/12/07 09:45:40;;;;;;;10.15;5.93;;;;;;;;;;5094898;28;20499;-72
2021/12/07 09:48:07;;;;;;;9.68;5.40;;;;;;;;;;5093982;28;20020;-72
2021/12/07 09:50:34;;;;;;;10.65;6.05;;;;;;;;;;5093273;28;20032;-71
2021/12/07 09:53:02;;;;;;;10.60;5.45;;;;;;;;;;5094194;28;20024;-71
2021/12/07 09:55:29;;;;;;;10.18;6.20;;;;;;;;;;5094260;28;20110;-72
2021/12/07 09:57:56;;;;;;;12.32;6.47;;;;;;;;;;5094165;28;20094;-72
2021/12/07 10:00:24;;;;;;;12.38;6.75;;;;;;;;;;5094024;28;20353;-71
2021/12/07 10:02:51;;;;;;;16.08;6.60;;;;;;;;;;5093677;28;20025;-72
2021/12/07 10:05:19;;;;;;;10.02;5.80;;;;;;;;;;5094167;28;20028;-72
2021/12/07 10:07:45;;;;;;;11.43;6.35;;;;;;;;;;5111791;28;20068;-72
2021/12/07 10:10:19;;;;;;;12.88;5.90;;;;;;;;;;5114395;28;20095;-71
2021/12/07 10:12:45;;;;;;;10.18;5.85;;;;;;;;;;5113935;28;20031;-72
2021/12/07 10:15:11;;;;;;;12.35;5.68;;;;;;;;;;5114792;28;20028;-72
2021/12/07 10:17:38;;;;;;;12.52;6.03;;;;;;;;;;5114340;28;20102;-73
2021/12/07 10:20:39;;;;;;;10.77;5.15;;;;;;;;;;5095826;28;20019;-71
2021/12/07 10:23:22;;;;;;;12.98;6.57;;;;;;;;;;5113926;28;20034;-71
2021/12/07 10:25:55;;;;;;;13.15;6.88;;;;;;;;;;5112869;28;20019;-71
2021/12/07 10:28:35;;;;;;;11.65;5.95;;;;;;;;;;5113442;28;20019;-71
2021/12/07 10:31:15;;;;;;;10.00;5.60;;;;;;;;;;5114012;28;20353;-70
2021/12/07 10:33:46;;;;;;;14.13;6.30;;;;;;;;;;5113901;28;20023;-71
2021/12/07 10:36:16;;;;;;;15.70;6.03;;;;;;;;;;5114012;28;20023;-72
2021/12/07 10:38:46;;;;;;;9.60;5.13;;;;;;;;;;5113945;28;20028;-71
2021/12/07 10:41:16;;;;;;;14.60;6.57;;;;;;;;;;5113713;28;20043;-71
2021/12/07 10:43:56;;;;;;;13.60;6.50;;;;;;;;;;5095456;28;20550;-71
2021/12/07 10:46:27;;;;;;;13.48;7.28;;;;;;;;;;5114389;28;20114;-71
2021/12/07 10:49:11;;;;;;;12.52;6.30;;;;;;;;;;5095576;28;20085;-71
2021/12/07 10:51:37;;;;;;;11.63;5.43;;;;;;;;;;5095488;28;20024;-71
2021/12/07 10:54:04;;;;;;;11.45;5.68;;;;;;;;;;5095546;28;20020;-71
2021/12/07 10:56:34;;;;;;;18.00;8.50;;;;;;;;;;5095522;28;20039;-71
2021/12/07 10:59:01;;;;;;;13.60;7.18;;;;;;;;;;5095470;28;20379;-72
2021/12/07 11:01:35;;;;;;;10.93;6.25;;;;;;;;;;5114146;28;20035;-71
2021/12/07 11:04:20;;;;;;;11.55;6.60;;;;;;;;;;5095395;28;20054;-71
2021/12/07 11:07:04;;;;;;;11.98;5.32;;;;;;;;;;5113438;28;20554;-71
2021/12/07 11:09:37;;;;;;;13.85;7.53;;;;;;;;;;5095407;28;20022;-71
2021/12/07 11:12:10;;;;;;;10.90;5.80;;;;;;;;;;5113921;28;20020;-71
2021/12/07 11:14:40;;;;;;;13.05;6.57;;;;;;;;;;5095349;28;20034;-72
2021/12/07 11:17:07;;;;;;;15.73;7.55;;;;;;;;;;5095327;28;20053;-72
2021/12/07 11:19:34;;;;;;;14.02;6.97;;;;;;;;;;5095267;28;20024;-72
2021/12/07 11:22:01;;;;;;;11.77;6.10;;;;;;;;;;5113553;28;20032;-72
2021/12/07 11:24:40;;;;;;;12.93;6.57;;;;;;;;;;5095402;28;20383;-72
2021/12/07 11:30:05;;;;;;;13.30;6.63;;;;;;;;;;5113691;28;20084;-72
2021/12/07 11:32:31;;;;;;;14.38;7.05;;;;;;;;;;5095203;28;20028;-72
2021/12/07 11:35:07;;;;;;;15.23;6.85;;;;;;;;;;5113456;28;20054;-72
2021/12/07 11:37:38;;;;;;;13.40;6.40;;;;;;;;;;5095344;28;20050;-73
2021/12/07 11:40:06;;;;;;;11.90;6.35;;;;;;;;;;5094985;28;20105;-72
2021/12/07 11:42:38;;;;;;;13.43;7.32;;;;;;;;;;5095297;28;20043;-72
2021/12/07 11:45:07;;;;;;;12.55;7.63;;;;;;;;;;5113814;28;20107;-71
2021/12/07 11:47:39;;;;;;;15.85;7.25;;;;;;;;;;5095135;28;20027;-71
2021/12/07 11:50:24;;;;;;;12.20;7.25;;;;;;;;;;5095353;28;20500;-70
2021/12/07 11:52:53;;;;;;;16.83;8.05;;;;;;;;;;5094902;28;20062;-71
2021/12/07 11:55:19;;;;;;;13.45;6.55;;;;;;;;;;5116310;28;20095;-71
2021/12/07 11:57:46;;;;;;;14.77;7.80;;;;;;;;;;5098926;28;20038;-71
2021/12/07 12:00:14;;;;;;;16.35;8.32;;;;;;;;;;5098455;28;20154;-72
2021/12/07 12:02:40;;;;;;;12.98;6.47;;;;;;;;;;5117527;28;20073;-73
2021/12/07 12:05:07;;;;;;;14.40;6.88;;;;;;;;;;5098900;28;20484;-70
2021/12/07 12:07:34;;;;;;;10.75;6.35;;;;;;;;;;5095289;28;20040;-72
2021/12/07 12:10:00;;;;;;;12.20;6.53;;;;;;;;;;5095210;28;20039;-71
2021/12/07 12:12:35;;;;;;;11.00;5.55;;;;;;;;;;5096464;28;20035;-71
2021/12/07 12:15:20;;;;;;;12.23;5.47;;;;;;;;;;5095142;28;20032;-71
2021/12/07 12:18:04;;;;;;;11.20;5.72;;;;;;;;;;5096464;28;20025;-70
2021/12/07 12:20:35;;;;;;;14.43;6.57;;;;;;;;;;5096362;28;20028;-71
2021/12/07 12:23:02;;;;;;;17.40;8.23;;;;;;;;;;5096485;28;20024;-70
2021/12/07 12:25:29;;;;;;;17.48;9.25;;;;;;;;;;5095243;28;20047;-71
2021/12/07 12:28:00;;;;;;;20.00;9.60;;;;;;;;;;5096218;28;20077;-72
2021/12/07 12:30:31;;;;;;;16.08;7.85;;;;;;;;;;5096223;28;20024;-71
2021/12/07 12:33:02;;;;;;;14.48;7.80;;;;;;;;;;5096118;28;20028;-71
2021/12/07 12:35:31;;;;;;;16.75;9.02;;;;;;;;;;5094913;28;20115;-71
2021/12/07 12:37:58;;;;;;;17.52;9.00;;;;;;;;;;5096026;28;20101;-71
2021/12/07 12:40:26;;;;;;;18.23;8.30;;;;;;;;;;5095855;28;20098;-71
2021/12/07 12:42:55;;;;;;;14.20;8.43;;;;;;;;;;5094851;28;20362;-71
2021/12/07 12:45:30;;;;;;;17.27;8.38;;;;;;;;;;5094842;28;20476;-72
2021/12/07 12:48:01;;;;;;;15.27;8.15;;;;;;;;;;5094592;28;20027;-71
2021/12/07 12:50:32;;;;;;;14.48;7.30;;;;;;;;;;5094489;28;20024;-71
2021/12/07 12:53:03;;;;;;;15.85;7.82;;;;;;;;;;5096059;28;20051;-72
2021/12/07 12:55:41;;;;;;;14.25;8.00;;;;;;;;;;5095791;28;20023;-73
2021/12/07 12:58:09;;;;;;;14.52;7.43;;;;;;;;;;5094543;28;20016;-72
2021/12/07 13:00:55;;;;;;;14.80;6.95;;;;;;;;;;5094272;28;20036;-72
2021/12/07 13:03:22;;;;;;;16.45;8.25;;;;;;;;;;5080537;28;20028;-72
2021/12/07 13:05:59;;;;;;;15.80;7.40;;;;;;;;;;5094940;28;20430;-73
2021/12/07 13:08:25;;;;;;;17.13;8.23;;;;;;;;;;5098268;28;20557;-72
2021/12/07 13:10:56;;;;;;;17.00;7.47;;;;;;;;;;5097453;28;20028;-73
2021/12/07 13:13:45;;;;;;;16.00;7.45;;;;;;;;;;5097265;28;20484;-71
2021/12/07 13:16:18;;;;;;;20.17;8.73;;;;;;;;;;5115952;28;20111;-71
2021/12/07 13:18:44;;;;;;;19.45;9.32;;;;;;;;;;5097240;28;20024;-72
2021/12/07 13:21:23;;;;;;;14.55;7.63;;;;;;;;;;5097362;28;20404;-72
2021/12/07 13:23:59;;;;;;;22.88;9.15;;;;;;;;;;5115622;28;20024;-72
2021/12/07 13:26:25;;;;;;;18.02;7.95;;;;;;;;;;5097333;28;20448;-71
2021/12/07 13:29:25;;;;;;;18.05;7.80;;;;;;;;;;5097310;28;20047;-72
2021/12/07 13:31:53;;;;;;;17.63;7.43;;;;;;;;;;5042661;28;20063;-72
2021/12/07 13:34:30;;;;;;;18.80;8.18;;;;;;;;;;5096823;28;20024;-71
2021/12/07 13:36:58;;;;;;;13.25;6.57;;;;;;;;;;5097100;28;20031;-70
2021/12/07 13:39:24;;;;;;;18.63;8.27;;;;;;;;;;5096827;28;20020;-72
2021/12/07 13:41:58;;;;;;;19.58;7.60;;;;;;;;;;5097014;28;20464;-71
2021/12/07 13:44:26;;;;;;;19.25;8.48;;;;;;;;;;5115147;28;20026;-71
2021/12/07 13:46:56;;;;;;;23.20;8.05;;;;;;;;;;5096839;28;20031;-74
2021/12/07 13:49:23;;;;;;;21.92;9.82;;;;;;;;;;5096589;28;20020;-72
2021/12/07 13:51:49;;;;;;;21.92;10.40;;;;;;;;;;5096843;28;20032;-74
2021/12/07 13:54:17;;;;;;;23.98;9.65;;;;;;;;;;5096479;28;20027;-71
2021/12/07 13:56:44;;;;;;;23.15;10.30;;;;;;;;;;5096595;28;20032;-74
2021/12/07 13:59:11;;;;;;;14.38;6.45;;;;;;;;;;5096280;28;20016;-73
2021/12/07 14:01:38;;;;;;;14.25;6.88;;;;;;;;;;5096448;28;20180;-74
2021/12/07 14:04:05;;;;;;;22.80;9.18;;;;;;;;;;5096623;28;20023;-74
2021/12/07 14:06:32;;;;;;;22.73;9.38;;;;;;;;;;5114534;28;20051;-71
2021/12/07 14:09:03;;;;;;;11.00;4.95;;;;;;;;;;5114683;28;20095;-73
2021/12/07 14:11:29;;;;;;;17.00;7.03;;;;;;;;;;5096136;28;20472;-73
2021/12/07 14:13:57;;;;;;;14.70;6.30;;;;;;;;;;5096288;28;20121;-72
2021/12/07 14:16:25;;;;;;;19.35;7.80;;;;;;;;;;5095589;28;20539;-74
2021/12/07 14:18:52;;;;;;;15.75;6.55;;;;;;;;;;5114448;28;20136;-73
2021/12/07 14:21:19;;;;;;;14.90;6.45;;;;;;;;;;5096061;28;20039;-72
2021/12/07 14:23:47;;;;;;;14.88;6.43;;;;;;;;;;5114347;28;20486;-71
2021/12/07 14:26:23;;;;;;;12.15;6.20;;;;;;;;;;5094800;28;20022;-72
2021/12/07 14:29:02;;;;;;;14.10;6.15;;;;;;;;;;5095810;28;20069;-71
2021/12/07 14:31:37;;;;;;;13.27;6.40;;;;;;;;;;5114150;28;20016;-73
2021/12/07 14:34:05;;;;;;;17.08;6.00;;;;;;;;;;5113740;28;20031;-71
2021/12/07 14:36:37;;;;;;;16.15;6.68;;;;;;;;;;5114284;28;20079;-70
2021/12/07 14:39:09;;;;;;;16.73;6.72;;;;;;;;;;5095817;28;20024;-71
2021/12/07 14:41:42;;;;;;;19.88;6.97;;;;;;;;;;5114130;28;20046;-70
2021/12/07 14:44:09;;;;;;;16.10;7.07;;;;;;;;;;5114226;28;20023;-71
2021/12/07 14:46:36;;;;;;;16.48;7.70;;;;;;;;;;5114451;28;20032;-73
2021/12/07 14:49:03;;;;;;;21.75;9.77;;;;;;;;;;5114105;28;20476;-73
2021/12/07 14:51:39;;;;;;;25.55;10.50;;;;;;;;;;5113645;28;20015;-71
2021/12/07 14:54:05;;;;;;;22.67;10.57;;;;;;;;;;5113623;28;20031;-72
2021/12/07 14:56:35;;;;;;;22.38;9.77;;;;;;;;;;5095680;28;20453;-73
2021/12/07 14:59:04;;;;;;;21.75;9.70;;;;;;;;;;5114199;28;20028;-72
2021/12/07 15:01:32;;;;;;;22.20;9.43;;;;;;;;;;5095852;28;20031;-72
2021/12/07 15:03:59;;;;;;;23.52;10.50;;;;;;;;;;5095808;28;20084;-72
2021/12/07 15:06:29;;;;;;;25.95;11.27;;;;;;;;;;5114292;28;20053;-73
2021/12/07 15:09:02;;;;;;;22.00;9.85;;;;;;;;;;5095542;28;20031;-72
2021/12/07 15:11:28;;;;;;;28.35;10.98;;;;;;;;;;5113734;28;20030;-73
2021/12/07 15:13:55;;;;;;;26.40;11.30;;;;;;;;;;5113274;28;20032;-70
2021/12/07 15:16:21;;;;;;;30.83;11.77;;;;;;;;;;5095389;28;20028;-71
2021/12/07 15:18:48;;;;;;;21.50;9.90;;;;;;;;;;5095531;28;20044;-71
2021/12/07 15:21:22;;;;;;;22.38;9.93;;;;;;;;;;5095200;28;20036;-71
2021/12/07 15:24:14;;;;;;;27.10;10.98;;;;;;;;;;5113606;28;20031;-72
2021/12/07 15:26:45;;;;;;;30.08;11.52;;;;;;;;;;5103752;28;20043;-72
2021/12/07 15:29:15;;;;;;;26.08;11.32;;;;;;;;;;5100567;28;20027;-71
2021/12/07 15:31:43;;;;;;;28.33;12.50;;;;;;;;;;5099431;28;20114;-71
2021/12/07 15:34:10;;;;;;;26.58;12.18;;;;;;;;;;5117092;28;20024;-71
2021/12/07 15:36:40;;;;;;;27.63;11.93;;;;;;;;;;5117907;28;20035;-72
2021/12/07 15:39:12;;;;;;;24.83;11.35;;;;;;;;;;5117607;28;20068;-72
2021/12/07 15:41:40;;;;;;;27.95;11.15;;;;;;;;;;5117712;28;20105;-72
2021/12/07 15:44:06;;;;;;;26.85;11.35;;;;;;;;;;5118120;28;20024;-71
2021/12/07 15:46:36;;;;;;;24.08;10.52;;;;;;;;;;5117518;28;20027;-72
2021/12/07 15:49:03;;;;;;;23.83;11.00;;;;;;;;;;5117556;28;20387;-71
2021/12/07 15:51:29;;;;;;;25.02;10.45;;;;;;;;;;5117021;28;20361;-72
2021/12/07 15:53:57;;;;;;;28.70;12.23;;;;;;;;;;5116416;28;20107;-72
2021/12/07 15:56:23;;;;;;;33.00;12.60;;;;;;;;;;5116607;28;20023;-71
2021/12/07 15:58:50;;;;;;;28.92;11.90;;;;;;;;;;5099078;28;20046;-72
2021/12/07 16:01:16;;;;;;;27.70;12.30;;;;;;;;;;5117287;28;20085;-72
2021/12/07 16:03:47;;;;;;;31.08;14.55;;;;;;;;;;5099000;28;20387;-72
2021/12/07 16:06:18;;;;;;;31.20;12.32;;;;;;;;;;5095418;28;20070;-72
2021/12/07 16:08:44;;;;;;;25.67;10.43;;;;;;;;;;5096958;28;20345;-72
2021/12/07 16:11:22;;;;;;;26.73;11.13;;;;;;;;;;5095582;28;20052;-71
2021/12/07 16:13:51;;;;;;;26.70;11.25;;;;;;;;;;5096588;28;20050;-72
2021/12/07 16:16:19;;;;;;;22.98;10.05;;;;;;;;;;5096973;28;20077;-72
2021/12/07 16:18:45;;;;;;;23.55;10.77;;;;;;;;;;5096640;28;20032;-72